createdAt,value
2023-09-08T00:02:11.832Z,101733.09
2023-09-08T00:04:38.246Z,101736.13
2023-09-08T00:07:04.588Z,101737.84
2023-09-08T00:09:30.867Z,101730.53
2023-09-08T00:11:57.198Z,101730.06
2023-09-08T00:14:23.540Z,101737.59
2023-09-08T00:16:49.887Z,101736.03
2023-09-08T00:19:16.193Z,101741.72
2023-09-08T00:21:42.491Z,101732.13
2023-09-08T00:24:08.759Z,101728.50
2023-09-08T00:26:35.064Z,101723.88
2023-09-08T00:29:01.460Z,101721.69
2023-09-08T00:31:27.806Z,101720.72
2023-09-08T00:33:54.291Z,101715.38
2023-09-08T00:36:20.682Z,101717.91
2023-09-08T00:38:46.969Z,101706.28
2023-09-08T00:41:13.313Z,101710.75
2023-09-08T00:43:39.643Z,101700.06
2023-09-08T00:46:05.982Z,101715.84
2023-09-08T00:48:32.718Z,101706.38
2023-09-08T00:50:59.253Z,101715.38
2023-09-08T00:53:25.525Z,101699.59
2023-09-08T00:55:51.784Z,101713.06
2023-09-08T00:58:18.037Z,101687.94
2023-09-08T01:00:44.386Z,101707.84
2023-09-08T01:03:10.843Z,101702.66
2023-09-08T01:05:37.349Z,101702.75
2023-09-08T01:08:03.646Z,101691.97
2023-09-08T01:10:29.887Z,101686.63
2023-09-08T01:12:56.138Z,101678.63
2023-09-08T01:15:22.518Z,101686.72
2023-09-08T01:17:48.997Z,101676.78
2023-09-08T01:20:15.292Z,101682.25
2023-09-08T01:22:41.554Z,101691.59
2023-09-08T01:25:07.835Z,101686.63
2023-09-08T01:27:34.071Z,101690.88
2023-09-08T01:30:00.333Z,101701.81
2023-09-08T01:32:26.617Z,101702.91
2023-09-08T01:34:52.861Z,101703.88
2023-09-08T01:37:19.114Z,101700.38
2023-09-08T01:39:45.340Z,101700.59
2023-09-08T01:42:11.641Z,101703.91
2023-09-08T01:44:37.976Z,101706.19
2023-09-08T01:47:04.295Z,101715.44
2023-09-08T01:49:30.638Z,101714.94
2023-09-08T01:51:56.933Z,101716.22
2023-09-08T01:54:23.285Z,101718.41
2023-09-08T01:56:49.549Z,101714.91
2023-09-08T01:59:15.834Z,101712.06
2023-09-08T02:01:42.227Z,101706.56
2023-09-08T02:04:08.583Z,101713.06
2023-09-08T02:06:34.930Z,101710.72
2023-09-08T02:09:01.268Z,101712.16
2023-09-08T02:11:27.531Z,101718.66
2023-09-08T02:13:55.370Z,101717.00
2023-09-08T02:16:22.824Z,101707.78
2023-09-08T02:18:49.144Z,101712.03
2023-09-08T02:21:15.442Z,101717.66
2023-09-08T02:23:41.735Z,101718.09
2023-09-08T02:26:08.000Z,101720.97
2023-09-08T02:28:34.504Z,101715.22
2023-09-08T02:31:01.060Z,101718.81
2023-09-08T02:33:27.578Z,101712.75
2023-09-08T02:35:54.008Z,101710.88
2023-09-08T02:38:20.245Z,101707.44
2023-09-08T02:40:46.513Z,101707.59
2023-09-08T02:43:12.775Z,101716.41
2023-09-08T02:45:39.042Z,101714.66
2023-09-08T02:48:05.443Z,101716.56
2023-09-08T02:50:31.756Z,101714.94
2023-09-08T02:52:58.080Z,101716.41
2023-09-08T02:55:24.381Z,101711.84
2023-09-08T02:57:51.059Z,101709.94
2023-09-08T03:00:17.382Z,101712.00
2023-09-08T03:02:43.828Z,101700.41
2023-09-08T03:05:10.251Z,101703.06
2023-09-08T03:07:36.563Z,101711.91
2023-09-08T03:10:02.898Z,101707.63
2023-09-08T03:12:29.203Z,101714.00
2023-09-08T03:14:55.468Z,101708.59
2023-09-08T03:17:21.820Z,101708.50
2023-09-08T03:19:48.152Z,101698.16
2023-09-08T03:22:14.492Z,101697.53
2023-09-08T03:24:40.829Z,101701.84
2023-09-08T03:27:07.137Z,101691.63
2023-09-08T03:29:33.393Z,101697.91
2023-09-08T03:31:59.798Z,101692.78
2023-09-08T03:34:26.347Z,101695.78
2023-09-08T03:36:52.798Z,101705.72
2023-09-08T03:39:19.090Z,101697.75
2023-09-08T03:41:45.325Z,101691.50
2023-09-08T03:44:11.583Z,101689.78
2023-09-08T03:46:38.016Z,101693.19
2023-09-08T03:49:04.455Z,101707.44
2023-09-08T03:51:30.741Z,101698.72
2023-09-08T03:53:57.000Z,101690.00
2023-09-08T03:56:23.298Z,101701.66
2023-09-08T03:58:49.588Z,101693.97
2023-09-08T04:01:16.007Z,101701.56
2023-09-08T04:03:42.308Z,101688.41
2023-09-08T04:06:08.617Z,101687.75
2023-09-08T04:08:34.940Z,101677.53
2023-09-08T04:11:01.269Z,101680.31
2023-09-08T04:13:27.554Z,101683.06
2023-09-08T04:15:53.828Z,101689.78
2023-09-08T04:18:20.246Z,101689.44
2023-09-08T04:20:46.586Z,101685.56
2023-09-08T04:23:12.943Z,101682.34
2023-09-08T04:25:39.202Z,101697.22
2023-09-08T04:28:05.512Z,101690.31
2023-09-08T04:30:31.786Z,101687.75
2023-09-08T04:32:58.160Z,101690.38
2023-09-08T04:35:24.447Z,101694.34
2023-09-08T04:37:50.692Z,101688.56
2023-09-08T04:40:16.974Z,101685.91
2023-09-08T04:42:43.283Z,101685.16
2023-09-08T04:45:09.656Z,101686.59
2023-09-08T04:47:36.059Z,101692.84
2023-09-08T04:50:02.418Z,101699.00
2023-09-08T04:52:28.837Z,101701.81
2023-09-08T04:54:55.170Z,101693.31
2023-09-08T04:57:23.771Z,101691.03
2023-09-08T04:59:50.597Z,101691.03
2023-09-08T05:02:17.010Z,101702.50
2023-09-08T05:04:43.327Z,101696.44
2023-09-08T05:07:09.636Z,101695.59
2023-09-08T05:09:35.973Z,101703.34
2023-09-08T05:12:02.222Z,101697.00
2023-09-08T05:14:28.467Z,101708.25
2023-09-08T05:16:54.860Z,101696.53
2023-09-08T05:19:21.251Z,101703.44
2023-09-08T05:21:47.610Z,101693.50
2023-09-08T05:24:13.970Z,101699.22
2023-09-08T05:26:40.290Z,101699.97
2023-09-08T05:29:06.647Z,101703.19
2023-09-08T05:31:33.004Z,101698.66
2023-09-08T05:33:59.354Z,101699.59
2023-09-08T05:36:25.653Z,101699.19
2023-09-08T05:38:51.932Z,101692.84
2023-09-08T05:41:18.271Z,101709.44
2023-09-08T05:43:44.612Z,101702.31
2023-09-08T05:46:10.934Z,101711.31
2023-09-08T05:48:37.513Z,101713.50
2023-09-08T05:51:04.037Z,101717.94
2023-09-08T05:53:30.320Z,101718.97
2023-09-08T05:55:57.348Z,101723.50
2023-09-08T05:58:23.664Z,101717.44
2023-09-08T06:00:49.943Z,101723.81
2023-09-08T06:03:16.314Z,101719.34
2023-09-08T06:05:42.626Z,101718.38
2023-09-08T06:08:09.064Z,101716.19
2023-09-08T06:10:35.341Z,101717.59
2023-09-08T06:13:01.581Z,101712.50
2023-09-08T06:15:27.869Z,101719.59
2023-09-08T06:17:54.177Z,101717.50
2023-09-08T06:20:20.455Z,101717.22
2023-09-08T06:22:46.692Z,101717.84
2023-09-08T06:25:13.178Z,101723.56
2023-09-08T06:27:39.492Z,101723.38
2023-09-08T06:30:05.790Z,101730.19
2023-09-08T06:32:32.112Z,101731.13
2023-09-08T06:34:58.384Z,101739.56
2023-09-08T06:37:24.621Z,101730.13
2023-09-08T06:39:50.860Z,101726.13
2023-09-08T06:42:17.144Z,101728.06
2023-09-08T06:44:43.512Z,101728.19
2023-09-08T06:47:09.919Z,101714.00
2023-09-08T06:49:36.220Z,101729.91
2023-09-08T06:52:02.552Z,101730.00
2023-09-08T06:54:29.152Z,101733.63
2023-09-08T06:56:55.471Z,101736.41
2023-09-08T06:59:21.771Z,101739.38
2023-09-08T07:01:48.198Z,101735.63
2023-09-08T07:04:14.774Z,101739.19
2023-09-08T07:06:41.192Z,101735.97
2023-09-08T07:09:07.450Z,101733.78
2023-09-08T07:11:33.717Z,101725.41
2023-09-08T07:14:00.045Z,101722.75
2023-09-08T07:16:26.398Z,101723.56
2023-09-08T07:18:52.784Z,101732.22
2023-09-08T07:21:19.059Z,101724.50
2023-09-08T07:23:45.325Z,101726.84
2023-09-08T07:26:11.576Z,101724.81
2023-09-08T07:28:38.066Z,101731.72
2023-09-08T07:31:04.541Z,101730.09
2023-09-08T07:33:30.942Z,101733.53
2023-09-08T07:35:57.279Z,101732.81
2023-09-08T07:38:23.580Z,101731.13
2023-09-08T07:40:49.836Z,101736.50
2023-09-08T07:43:16.178Z,101729.34
2023-09-08T07:45:42.590Z,101740.16
2023-09-08T07:48:09.028Z,101740.78
2023-09-08T07:50:35.399Z,101734.34
2023-09-08T07:53:01.698Z,101735.75
2023-09-08T07:55:27.990Z,101743.03
2023-09-08T07:57:54.302Z,101737.69
2023-09-08T08:00:20.579Z,101739.13
2023-09-08T08:02:46.945Z,101739.16
2023-09-08T08:05:13.329Z,101740.34
2023-09-08T08:07:39.629Z,101732.88
2023-09-08T08:10:05.929Z,101736.72
2023-09-08T08:12:32.271Z,101734.00
2023-09-08T08:14:58.573Z,101736.53
2023-09-08T08:17:24.981Z,101734.00
2023-09-08T08:19:51.287Z,101735.47
2023-09-08T08:22:17.654Z,101727.75
2023-09-08T08:24:44.037Z,101730.38
2023-09-08T08:27:10.457Z,101725.06
2023-09-08T08:29:36.745Z,101722.81
2023-09-08T08:32:03.047Z,101721.25
2023-09-08T08:34:29.355Z,101723.25
2023-09-08T08:36:55.596Z,101717.75
2023-09-08T08:39:21.927Z,101709.25
2023-09-08T08:41:48.226Z,101704.53
2023-09-08T08:44:14.502Z,101706.66
2023-09-08T08:46:40.757Z,101706.50
2023-09-08T08:49:07.084Z,101700.91
2023-09-08T08:51:33.454Z,101700.72
2023-09-08T08:53:59.769Z,101704.69
2023-09-08T08:56:26.072Z,101705.78
2023-09-08T08:58:52.345Z,101695.06
2023-09-08T09:01:18.633Z,101700.25
2023-09-08T09:03:45.027Z,101702.84
2023-09-08T09:06:11.393Z,101689.97
2023-09-08T09:08:37.932Z,101693.59
2023-09-08T09:11:04.360Z,101689.50
2023-09-08T09:13:30.663Z,101683.34
2023-09-08T09:15:57.145Z,101695.34
2023-09-08T09:18:23.556Z,101692.75
2023-09-08T09:20:49.881Z,101683.63
2023-09-08T09:23:16.212Z,101681.13
2023-09-08T09:25:42.578Z,101682.72
2023-09-08T09:28:09.074Z,101673.47
2023-09-08T09:30:35.428Z,101681.31
2023-09-08T09:33:01.859Z,101679.84
2023-09-08T09:35:28.234Z,101680.72
2023-09-08T09:37:54.609Z,101669.09
2023-09-08T09:40:20.969Z,101672.06
2023-09-08T09:42:47.332Z,101677.97
2023-09-08T09:45:13.651Z,101664.34
2023-09-08T09:47:40.053Z,101666.25
2023-09-08T09:50:06.337Z,101662.34
2023-09-08T09:52:32.601Z,101656.81
2023-09-08T09:54:59.458Z,101660.50
2023-09-08T09:57:25.792Z,101657.44
2023-09-08T09:59:52.181Z,101659.59
2023-09-08T10:02:18.549Z,101649.97
2023-09-08T10:04:44.857Z,101653.28
2023-09-08T10:07:11.317Z,101652.78
2023-09-08T10:09:37.690Z,101654.59
2023-09-08T10:12:04.091Z,101656.41
2023-09-08T10:14:30.431Z,101649.66
2023-09-08T10:16:56.814Z,101652.56
2023-09-08T10:19:23.141Z,101654.84
2023-09-08T10:21:49.478Z,101649.09
2023-09-08T10:24:15.838Z,101647.47
2023-09-08T10:26:42.147Z,101636.38
2023-09-08T10:29:08.632Z,101628.63
2023-09-08T10:31:34.932Z,101624.84
2023-09-08T10:34:01.258Z,101633.34
2023-09-08T10:36:27.637Z,101633.50
2023-09-08T10:38:53.897Z,101631.81
2023-09-08T10:41:20.285Z,101625.88
2023-09-08T10:43:46.654Z,101633.44
2023-09-08T10:46:13.095Z,101629.63
2023-09-08T10:48:39.534Z,101627.91
2023-09-08T10:51:05.946Z,101627.81
2023-09-08T10:53:32.362Z,101625.19
2023-09-08T10:56:16.718Z,101614.09
2023-09-08T10:58:44.786Z,101617.47
2023-09-08T11:01:11.244Z,101614.38
2023-09-08T11:03:37.736Z,101610.25
2023-09-08T11:06:04.227Z,101620.88
2023-09-08T11:08:30.612Z,101616.03
2023-09-08T11:10:56.882Z,101615.47
2023-09-08T11:13:23.169Z,101611.47
2023-09-08T11:15:49.618Z,101607.84
2023-09-08T11:18:15.962Z,101614.09
2023-09-08T11:20:42.576Z,101611.56
2023-09-08T11:23:09.070Z,101603.63
2023-09-08T11:25:35.359Z,101601.81
2023-09-08T11:28:01.648Z,101606.47
2023-09-08T11:30:27.977Z,101600.53
2023-09-08T11:32:54.286Z,101597.47
2023-09-08T11:35:20.714Z,101598.78
2023-09-08T11:37:46.988Z,101594.59
2023-09-08T11:40:13.706Z,101593.31
2023-09-08T11:42:40.235Z,101602.75
2023-09-08T11:45:06.547Z,101599.31
2023-09-08T11:47:32.861Z,101596.31
2023-09-08T11:49:59.265Z,101600.25
2023-09-08T11:52:25.597Z,101594.25
2023-09-08T11:55:05.942Z,101584.09
2023-09-08T11:57:33.250Z,101585.63
2023-09-08T11:59:59.577Z,101578.69
2023-09-08T12:02:25.968Z,101584.53
2023-09-08T12:04:52.277Z,101585.41
2023-09-08T12:07:18.574Z,101587.75
2023-09-08T12:09:44.933Z,101575.69
2023-09-08T12:12:11.292Z,101571.53
2023-09-08T12:14:37.556Z,101574.13
2023-09-08T12:17:03.884Z,101570.16
2023-09-08T12:19:30.264Z,101567.25
2023-09-08T12:21:56.647Z,101572.19
2023-09-08T12:24:22.994Z,101563.16
2023-09-08T12:26:49.326Z,101564.69
2023-09-08T12:29:15.734Z,101562.84
2023-09-08T12:31:42.091Z,101560.44
2023-09-08T12:34:08.410Z,101556.69
2023-09-08T12:36:34.755Z,101554.84
2023-09-08T12:39:01.070Z,101545.44
2023-09-08T12:41:27.346Z,101556.34
2023-09-08T12:43:53.618Z,101546.44
2023-09-08T12:46:20.031Z,101546.06
2023-09-08T12:48:46.438Z,101543.97
2023-09-08T12:51:12.800Z,101537.22
2023-09-08T12:53:39.129Z,101542.06
2023-09-08T12:56:05.469Z,101541.06
2023-09-08T12:58:31.854Z,101541.03
2023-09-08T13:00:58.172Z,101535.78
2023-09-08T13:03:24.484Z,101542.41
2023-09-08T13:05:50.853Z,101530.84
2023-09-08T13:08:17.244Z,101530.66
2023-09-08T13:10:43.597Z,101524.34
2023-09-08T13:13:09.937Z,101520.00
2023-09-08T13:15:36.272Z,101523.66
2023-09-08T13:18:02.564Z,101524.03
2023-09-08T13:20:28.900Z,101529.09
2023-09-08T13:22:55.264Z,101530.97
2023-09-08T13:25:21.719Z,101520.03
2023-09-08T13:27:48.113Z,101526.13
2023-09-08T13:30:14.399Z,101519.78
2023-09-08T13:32:40.780Z,101511.31
2023-09-08T13:35:07.109Z,101509.31
2023-09-08T13:37:33.402Z,101505.09
2023-09-08T13:39:59.728Z,101503.09
2023-09-08T13:42:26.069Z,101498.09
2023-09-08T13:44:52.414Z,101495.03
2023-09-08T13:47:18.968Z,101494.50
2023-09-08T13:49:47.622Z,101491.72
2023-09-08T13:52:16.016Z,101490.88
2023-09-08T13:54:45.668Z,101486.47
2023-09-08T13:57:14.213Z,101488.72
2023-09-08T13:59:43.125Z,101486.84
2023-09-08T14:02:38.202Z,101491.03
2023-09-08T14:04:59.200Z,101488.16
2023-09-08T14:12:34.575Z,101488.03
2023-09-08T14:15:02.234Z,101484.81
2023-09-08T14:17:28.576Z,101480.66
2023-09-08T14:19:54.949Z,101485.13
2023-09-08T14:22:21.261Z,101474.75
2023-09-08T14:24:47.558Z,101469.06
2023-09-08T14:27:13.871Z,101472.53
2023-09-08T14:29:40.177Z,101471.31
2023-09-08T14:32:06.426Z,101472.84
2023-09-08T14:34:32.742Z,101473.69
2023-09-08T14:36:59.038Z,101474.81
2023-09-08T14:39:25.331Z,101473.50
2023-09-08T14:41:51.657Z,101481.13
2023-09-08T14:44:18.034Z,101477.25
2023-09-08T14:46:44.381Z,101474.81
2023-09-08T14:49:10.698Z,101470.19
2023-09-08T14:51:36.928Z,101467.28
2023-09-08T14:54:03.241Z,101467.91
2023-09-08T14:56:29.522Z,101470.88
2023-09-08T14:58:55.813Z,101475.84
2023-09-08T15:01:22.188Z,101464.22
2023-09-08T15:03:48.470Z,101469.91
2023-09-08T15:06:15.023Z,101465.88
2023-09-08T15:08:41.318Z,101464.59
2023-09-08T15:11:07.631Z,101469.69
2023-09-08T15:13:34.104Z,101466.50
2023-09-08T15:16:00.670Z,101470.63
2023-09-08T15:18:26.935Z,101476.28
2023-09-08T15:20:53.384Z,101481.38
2023-09-08T15:23:19.877Z,101476.38
2023-09-08T15:25:46.259Z,101472.09
2023-09-08T15:28:12.566Z,101474.09
2023-09-08T15:30:38.915Z,101467.19
2023-09-08T15:33:05.361Z,101470.16
2023-09-08T15:35:31.790Z,101467.09
2023-09-08T15:37:59.263Z,101469.38
2023-09-08T15:40:25.571Z,101470.88
2023-09-08T15:42:51.906Z,101474.22
2023-09-08T15:45:18.236Z,101467.91
2023-09-08T15:47:44.597Z,101470.63
2023-09-08T15:50:10.889Z,101469.34
2023-09-08T15:52:37.131Z,101470.63
2023-09-08T15:55:03.469Z,101468.16
2023-09-08T15:57:29.705Z,101472.56
2023-09-08T15:59:56.010Z,101473.81
2023-09-08T16:02:22.358Z,101469.44
2023-09-08T16:04:48.804Z,101472.13
2023-09-08T16:07:15.183Z,101472.13
2023-09-08T16:09:41.430Z,101469.00
2023-09-08T16:12:07.696Z,101475.66
2023-09-08T16:14:34.018Z,101471.69
2023-09-08T16:17:00.343Z,101475.44
2023-09-08T16:19:26.590Z,101474.38
2023-09-08T16:21:52.948Z,101474.34
2023-09-08T16:24:19.273Z,101475.19
2023-09-08T16:26:45.644Z,101469.06
2023-09-08T16:29:11.966Z,101471.94
2023-09-08T16:31:38.364Z,101468.72
2023-09-08T16:34:04.639Z,101469.47
2023-09-08T16:36:30.968Z,101476.41
2023-09-08T16:38:57.331Z,101471.41
2023-09-08T16:41:23.620Z,101475.44
2023-09-08T16:43:49.894Z,101478.94
2023-09-08T16:46:16.187Z,101479.59
2023-09-08T16:48:42.491Z,101477.97
2023-09-08T16:51:08.793Z,101480.41
2023-09-08T16:53:35.314Z,101485.59
2023-09-08T16:56:01.753Z,101477.66
2023-09-08T16:58:28.052Z,101475.22
2023-09-08T17:00:54.293Z,101488.44
2023-09-08T17:03:20.759Z,101484.19
2023-09-08T17:05:47.202Z,101485.50
2023-09-08T17:08:13.490Z,101485.81
2023-09-08T17:10:39.798Z,101490.34
2023-09-08T17:13:06.130Z,101491.66
2023-09-08T17:15:32.421Z,101488.91
2023-09-08T17:17:58.795Z,101493.06
2023-09-08T17:20:25.229Z,101489.50
2023-09-08T17:22:51.704Z,101493.09
2023-09-08T17:25:18.002Z,101500.28
2023-09-08T17:27:44.602Z,101503.47
2023-09-08T17:30:11.037Z,101506.56
2023-09-08T17:32:37.334Z,101512.72
2023-09-08T17:35:03.599Z,101501.19
2023-09-08T17:37:29.920Z,101504.47
2023-09-08T17:39:57.114Z,101518.69
2023-09-08T17:42:23.412Z,101515.78
2023-09-08T17:44:49.680Z,101516.03
2023-09-08T17:47:16.003Z,101513.50
2023-09-08T17:49:42.367Z,101516.06
2023-09-08T17:52:08.664Z,101516.53
2023-09-08T17:54:35.007Z,101522.84
2023-09-08T17:57:01.363Z,101525.91
2023-09-08T17:59:27.664Z,101519.53
2023-09-08T18:01:54.058Z,101520.50
2023-09-08T18:04:20.655Z,101527.41
2023-09-08T18:06:47.142Z,101525.00
2023-09-08T18:09:13.514Z,101515.56
2023-09-08T18:11:39.833Z,101520.25
2023-09-08T18:14:06.102Z,101530.88
2023-09-08T18:16:34.233Z,101530.19
2023-09-08T18:19:02.732Z,101532.53
2023-09-08T18:21:29.013Z,101540.78
2023-09-08T18:23:55.317Z,101537.56
2023-09-08T18:26:21.643Z,101535.72
2023-09-08T18:28:48.023Z,101543.47
2023-09-08T18:31:14.393Z,101530.44
2023-09-08T18:33:40.851Z,101539.34
2023-09-08T18:36:07.142Z,101541.66
2023-09-08T18:38:33.476Z,101544.59
2023-09-08T18:40:59.783Z,101547.88
2023-09-08T18:43:26.050Z,101544.53
2023-09-08T18:45:52.393Z,101537.94
2023-09-08T18:48:18.786Z,101548.63
2023-09-08T18:50:45.097Z,101545.84
2023-09-08T18:53:11.357Z,101546.28
2023-09-08T18:55:37.692Z,101552.09
2023-09-08T18:58:04.030Z,101551.09
2023-09-08T19:00:30.275Z,101554.06
2023-09-08T19:02:56.734Z,101559.56
2023-09-08T19:05:23.274Z,101560.41
2023-09-08T19:07:49.613Z,101560.41
2023-09-08T19:10:15.919Z,101568.84
2023-09-08T19:12:42.196Z,101554.88
2023-09-08T19:15:08.478Z,101566.16
2023-09-08T19:17:34.877Z,101563.03
2023-09-08T19:20:01.231Z,101567.69
2023-09-08T19:22:27.599Z,101562.47
2023-09-08T19:24:53.960Z,101569.97
2023-09-08T19:27:20.291Z,101571.38
2023-09-08T19:29:46.624Z,101575.72
2023-09-08T19:32:12.886Z,101569.66
2023-09-08T19:34:39.172Z,101572.28
2023-09-08T19:37:05.461Z,101569.72
2023-09-08T19:39:31.764Z,101576.66
2023-09-08T19:41:58.014Z,101570.84
2023-09-08T19:44:24.290Z,101571.09
2023-09-08T19:46:50.575Z,101571.25
2023-09-08T19:49:16.896Z,101568.56
2023-09-08T19:51:43.212Z,101570.94
2023-09-08T19:54:09.508Z,101566.69
2023-09-08T19:56:35.824Z,101570.22
2023-09-08T19:59:03.350Z,101577.84
2023-09-08T20:01:29.907Z,101572.44
2023-09-08T20:03:56.206Z,101573.56
2023-09-08T20:06:22.553Z,101572.28
2023-09-08T20:08:49.071Z,101580.00
2023-09-08T20:11:15.688Z,101577.63
2023-09-08T20:13:42.079Z,101578.03
2023-09-08T20:16:08.424Z,101574.38
2023-09-08T20:18:34.934Z,101575.00
2023-09-08T20:21:01.261Z,101578.13
2023-09-08T20:23:27.591Z,101576.16
2023-09-08T20:25:53.909Z,101570.63
2023-09-08T20:28:20.195Z,101569.44
2023-09-08T20:30:46.723Z,101570.66
2023-09-08T20:33:13.627Z,101570.47
2023-09-08T20:35:39.960Z,101575.09
2023-09-08T20:38:06.341Z,101571.72
2023-09-08T20:40:32.710Z,101571.00
2023-09-08T20:42:59.101Z,101574.91
2023-09-08T20:45:25.426Z,101582.91
2023-09-08T20:47:51.704Z,101587.38
2023-09-08T20:50:18.085Z,101582.88
2023-09-08T20:52:44.451Z,101586.81
2023-09-08T20:55:10.805Z,101586.06
2023-09-08T20:57:37.101Z,101587.31
2023-09-08T21:00:03.358Z,101586.78
2023-09-08T21:02:29.688Z,101589.47
2023-09-08T21:04:56.078Z,101593.34
2023-09-08T21:07:22.450Z,101589.56
2023-09-08T21:09:48.696Z,101598.19
2023-09-08T21:12:15.059Z,101604.53
2023-09-08T21:14:41.366Z,101610.34
2023-09-08T21:17:07.698Z,101601.63
2023-09-08T21:19:34.010Z,101610.47
2023-09-08T21:22:00.480Z,101608.78
2023-09-08T21:24:26.817Z,101615.22
2023-09-08T21:26:53.090Z,101618.22
2023-09-08T21:29:19.406Z,101613.38
2023-09-08T21:31:45.764Z,101622.59
2023-09-08T21:34:12.084Z,101608.91
2023-09-08T21:36:38.398Z,101619.94
2023-09-08T21:39:04.699Z,101610.59
2023-09-08T21:41:31.068Z,101622.22
2023-09-08T21:43:57.411Z,101611.94
2023-09-08T21:46:23.707Z,101604.41
2023-09-08T21:48:50.160Z,101612.88
2023-09-08T21:51:16.544Z,101621.00
2023-09-08T21:53:42.840Z,101613.13
2023-09-08T21:56:09.088Z,101611.06
2023-09-08T21:58:35.766Z,101609.13
2023-09-08T22:01:02.318Z,101613.88
2023-09-08T22:03:29.049Z,101607.66
2023-09-08T22:05:55.520Z,101605.50
2023-09-08T22:08:22.083Z,101607.56
2023-09-08T22:10:48.588Z,101608.03
2023-09-08T22:13:14.838Z,101604.03
2023-09-08T22:15:41.328Z,101597.97
2023-09-08T22:18:07.955Z,101604.50
2023-09-08T22:20:34.296Z,101605.22
2023-09-08T22:23:00.575Z,101609.09
2023-09-08T22:25:26.964Z,101613.34
2023-09-08T22:27:53.409Z,101615.03
2023-09-08T22:30:19.703Z,101614.94
2023-09-08T22:32:46.119Z,101611.91
2023-09-08T22:35:12.460Z,101605.47
2023-09-08T22:37:38.815Z,101609.88
2023-09-08T22:40:05.057Z,101617.97
2023-09-08T22:42:31.380Z,101600.88
2023-09-08T22:44:57.655Z,101610.91
2023-09-08T22:47:23.940Z,101609.97
2023-09-08T22:49:50.254Z,101604.63
2023-09-08T22:52:16.566Z,101603.31
2023-09-08T22:54:42.922Z,101596.88
2023-09-08T22:57:09.206Z,101603.81
2023-09-08T22:59:35.489Z,101605.81
2023-09-08T23:02:01.879Z,101600.69
2023-09-08T23:04:28.232Z,101599.59
2023-09-08T23:06:54.480Z,101594.00
2023-09-08T23:09:20.771Z,101597.00
2023-09-08T23:11:47.153Z,101594.69
2023-09-08T23:14:13.493Z,101591.16
2023-09-08T23:16:39.856Z,101597.84
2023-09-08T23:19:06.159Z,101599.19
2023-09-08T23:21:32.439Z,101603.44
2023-09-08T23:23:58.686Z,101600.16
2023-09-08T23:26:25.020Z,101606.56
2023-09-08T23:28:51.299Z,101606.88
2023-09-08T23:31:17.624Z,101609.41
2023-09-08T23:33:43.992Z,101602.19
2023-09-08T23:36:10.257Z,101604.13
2023-09-08T23:38:36.503Z,101600.50
2023-09-08T23:41:02.796Z,101595.69
2023-09-08T23:43:29.076Z,101600.25
2023-09-08T23:45:55.303Z,101604.75
2023-09-08T23:48:21.540Z,101599.53
2023-09-08T23:50:47.869Z,101599.53
2023-09-08T23:53:14.122Z,101598.69
2023-09-08T23:55:40.423Z,101594.66
2023-09-08T23:58:06.698Z,101594.16
